sensor_id;sensor_type;location;lat;lon;timestamp;temperature;humidity
25328;DHT22;13279;51.300;12.394;2024-01-06T00:00:29;4.10;99.90
25328;DHT22;13279;51.300;12.394;2024-01-06T00:02:58;4.10;99.90
25328;DHT22;13279;51.300;12.394;2024-01-06T00:05:26;4.10;99.90
25328;DHT22;13279;51.300;12.394;2024-01-06T00:07:53;4.10;99.90
25328;DHT22;13279;51.300;12.394;2024-01-06T00:10:22;4.10;99.90
25328;DHT22;13279;51.300;12.394;2024-01-06T00:12:49;4.10;99.90
25328;DHT22;13279;51.300;12.394;2024-01-06T00:15:16;4.00;99.90
25328;DHT22;13279;51.300;12.394;2024-01-06T00:17:44;4.00;99.90
25328;DHT22;13279;51.300;12.394;2024-01-06T00:20:13;4.00;99.90
25328;DHT22;13279;51.300;12.394;2024-01-06T00:22:40;4.00;99.90
25328;DHT22;13279;51.300;12.394;2024-01-06T00:25:08;4.00;99.90
25328;DHT22;13279;51.300;12.394;2024-01-06T00:27:36;4.00;99.90
25328;DHT22;13279;51.300;12.394;2024-01-06T00:30:04;3.90;99.90
25328;DHT22;13279;51.300;12.394;2024-01-06T00:32:32;4.00;99.90
25328;DHT22;13279;51.300;12.394;2024-01-06T00:34:59;4.00;99.90
25328;DHT22;13279;51.300;12.394;2024-01-06T00:37:28;4.00;99.90
25328;DHT22;13279;51.300;12.394;2024-01-06T00:39:56;4.00;99.90
25328;DHT22;13279;51.300;12.394;2024-01-06T00:42:23;4.00;99.90
25328;DHT22;13279;51.300;12.394;2024-01-06T00:44:50;4.00;99.90
25328;DHT22;13279;51.300;12.394;2024-01-06T00:47:18;3.90;99.90
25328;DHT22;13279;51.300;12.394;2024-01-06T00:49:48;3.90;99.90
25328;DHT22;13279;51.300;12.394;2024-01-06T00:52:15;3.80;99.90
25328;DHT22;13279;51.300;12.394;2024-01-06T00:54:44;3.80;99.90
25328;DHT22;13279;51.300;12.394;2024-01-06T00:57:13;3.80;99.90
25328;DHT22;13279;51.300;12.394;2024-01-06T00:59:40;3.90;99.90
25328;DHT22;13279;51.300;12.394;2024-01-06T01:02:08;3.80;99.90
25328;DHT22;13279;51.300;12.394;2024-01-06T01:04:35;3.80;99.90
25328;DHT22;13279;51.300;12.394;2024-01-06T01:07:03;3.80;99.90
25328;DHT22;13279;51.300;12.394;2024-01-06T01:09:30;3.80;99.90
25328;DHT22;13279;51.300;12.394;2024-01-06T01:12:00;3.80;99.90
25328;DHT22;13279;51.300;12.394;2024-01-06T01:14:27;3.80;99.90
25328;DHT22;13279;51.300;12.394;2024-01-06T01:16:55;3.70;99.90
25328;DHT22;13279;51.300;12.394;2024-01-06T01:19:22;3.70;99.90
25328;DHT22;13279;51.300;12.394;2024-01-06T01:21:50;3.70;99.90
25328;DHT22;13279;51.300;12.394;2024-01-06T01:24:21;3.60;99.90
25328;DHT22;13279;51.300;12.394;2024-01-06T01:26:48;3.60;99.90
25328;DHT22;13279;51.300;12.394;2024-01-06T01:29:17;3.50;99.90
25328;DHT22;13279;51.300;12.394;2024-01-06T01:31:46;3.60;99.90
25328;DHT22;13279;51.300;12.394;2024-01-06T01:34:13;3.60;99.90
25328;DHT22;13279;51.300;12.394;2024-01-06T01:36:41;3.60;99.90
25328;DHT22;13279;51.300;12.394;2024-01-06T01:39:09;3.60;99.90
25328;DHT22;13279;51.300;12.394;2024-01-06T01:41:37;3.60;99.90
25328;DHT22;13279;51.300;12.394;2024-01-06T01:44:04;3.50;99.90
25328;DHT22;13279;51.300;12.394;2024-01-06T01:46:33;3.50;99.90
25328;DHT22;13279;51.300;12.394;2024-01-06T01:49:01;3.40;99.90
25328;DHT22;13279;51.300;12.394;2024-01-06T01:51:32;3.40;99.90
25328;DHT22;13279;51.300;12.394;2024-01-06T01:54:01;3.40;99.90
25328;DHT22;13279;51.300;12.394;2024-01-06T01:56:30;3.40;99.90
25328;DHT22;13279;51.300;12.394;2024-01-06T01:59:02;3.40;99.90
25328;DHT22;13279;51.300;12.394;2024-01-06T02:01:34;3.40;99.90
25328;DHT22;13279;51.300;12.394;2024-01-06T02:04:01;3.40;99.90
25328;DHT22;13279;51.300;12.394;2024-01-06T02:06:29;3.40;99.90
25328;DHT22;13279;51.300;12.394;2024-01-06T02:08:56;3.40;99.90
25328;DHT22;13279;51.300;12.394;2024-01-06T02:11:23;3.40;99.90
25328;DHT22;13279;51.300;12.394;2024-01-06T02:13:50;3.40;99.90
25328;DHT22;13279;51.300;12.394;2024-01-06T02:16:18;3.30;99.90
25328;DHT22;13279;51.300;12.394;2024-01-06T02:18:49;3.30;99.90
25328;DHT22;13279;51.300;12.394;2024-01-06T02:21:17;3.30;99.90
25328;DHT22;13279;51.300;12.394;2024-01-06T02:23:48;3.30;99.90
25328;DHT22;13279;51.300;12.394;2024-01-06T02:26:16;3.30;99.90
25328;DHT22;13279;51.300;12.394;2024-01-06T02:28:44;3.20;99.90
25328;DHT22;13279;51.300;12.394;2024-01-06T02:31:14;3.20;99.90
25328;DHT22;13279;51.300;12.394;2024-01-06T02:33:41;3.20;99.90
25328;DHT22;13279;51.300;12.394;2024-01-06T02:36:08;3.20;99.90
25328;DHT22;13279;51.300;12.394;2024-01-06T02:38:36;3.20;99.90
25328;DHT22;13279;51.300;12.394;2024-01-06T02:41:05;3.20;99.90
25328;DHT22;13279;51.300;12.394;2024-01-06T02:43:32;3.20;99.90
25328;DHT22;13279;51.300;12.394;2024-01-06T02:46:00;3.10;99.90
25328;DHT22;13279;51.300;12.394;2024-01-06T02:48:28;3.10;99.90
25328;DHT22;13279;51.300;12.394;2024-01-06T02:50:56;3.10;99.90
25328;DHT22;13279;51.300;12.394;2024-01-06T02:53:24;3.00;99.90
25328;DHT22;13279;51.300;12.394;2024-01-06T02:55:51;3.00;99.90
25328;DHT22;13279;51.300;12.394;2024-01-06T02:58:20;3.00;99.90
25328;DHT22;13279;51.300;12.394;2024-01-06T03:00:48;2.90;99.90
25328;DHT22;13279;51.300;12.394;2024-01-06T03:03:15;2.90;99.90
25328;DHT22;13279;51.300;12.394;2024-01-06T03:05:42;2.90;99.90
25328;DHT22;13279;51.300;12.394;2024-01-06T03:08:10;2.90;99.90
25328;DHT22;13279;51.300;12.394;2024-01-06T03:10:37;2.90;99.90
25328;DHT22;13279;51.300;12.394;2024-01-06T03:13:04;2.90;99.90
25328;DHT22;13279;51.300;12.394;2024-01-06T03:15:33;2.90;99.90
25328;DHT22;13279;51.300;12.394;2024-01-06T03:18:01;2.90;99.90
25328;DHT22;13279;51.300;12.394;2024-01-06T03:20:28;2.90;99.90
25328;DHT22;13279;51.300;12.394;2024-01-06T03:22:56;2.90;99.90
25328;DHT22;13279;51.300;12.394;2024-01-06T03:25:23;2.90;99.90
25328;DHT22;13279;51.300;12.394;2024-01-06T03:27:51;2.90;99.90
25328;DHT22;13279;51.300;12.394;2024-01-06T03:30:18;2.90;99.90
25328;DHT22;13279;51.300;12.394;2024-01-06T03:32:47;2.90;99.90
25328;DHT22;13279;51.300;12.394;2024-01-06T03:35:15;2.90;99.90
25328;DHT22;13279;51.300;12.394;2024-01-06T03:37:43;2.90;99.90
25328;DHT22;13279;51.300;12.394;2024-01-06T03:40:12;2.90;99.90
25328;DHT22;13279;51.300;12.394;2024-01-06T03:42:39;2.90;99.90
25328;DHT22;13279;51.300;12.394;2024-01-06T03:45:07;2.90;99.90
25328;DHT22;13279;51.300;12.394;2024-01-06T03:47:34;2.90;99.90
25328;DHT22;13279;51.300;12.394;2024-01-06T03:50:04;2.90;99.90
25328;DHT22;13279;51.300;12.394;2024-01-06T03:52:31;2.80;99.90
25328;DHT22;13279;51.300;12.394;2024-01-06T03:54:59;2.80;99.90
25328;DHT22;13279;51.300;12.394;2024-01-06T03:57:26;2.80;99.90
25328;DHT22;13279;51.300;12.394;2024-01-06T03:59:53;2.80;99.90
25328;DHT22;13279;51.300;12.394;2024-01-06T04:02:20;2.70;99.90
25328;DHT22;13279;51.300;12.394;2024-01-06T04:04:48;2.70;99.90
25328;DHT22;13279;51.300;12.394;2024-01-06T04:07:17;2.60;99.90
25328;DHT22;13279;51.300;12.394;2024-01-06T04:09:44;2.60;99.90
25328;DHT22;13279;51.300;12.394;2024-01-06T04:12:12;2.60;99.90
25328;DHT22;13279;51.300;12.394;2024-01-06T04:14:39;2.50;99.90
25328;DHT22;13279;51.300;12.394;2024-01-06T04:17:07;2.50;99.90
25328;DHT22;13279;51.300;12.394;2024-01-06T04:19:34;2.50;99.90
25328;DHT22;13279;51.300;12.394;2024-01-06T04:22:02;2.50;99.90
25328;DHT22;13279;51.300;12.394;2024-01-06T04:24:31;2.50;99.90
25328;DHT22;13279;51.300;12.394;2024-01-06T04:27:04;2.50;99.90
25328;DHT22;13279;51.300;12.394;2024-01-06T04:29:31;2.50;99.90
25328;DHT22;13279;51.300;12.394;2024-01-06T04:31:59;2.50;99.90
25328;DHT22;13279;51.300;12.394;2024-01-06T04:34:26;2.60;99.90
25328;DHT22;13279;51.300;12.394;2024-01-06T04:36:53;2.60;99.90
25328;DHT22;13279;51.300;12.394;2024-01-06T04:39:21;2.50;99.90
25328;DHT22;13279;51.300;12.394;2024-01-06T04:41:50;2.50;99.90
25328;DHT22;13279;51.300;12.394;2024-01-06T04:44:20;2.40;99.90
25328;DHT22;13279;51.300;12.394;2024-01-06T04:46:48;2.40;99.90
25328;DHT22;13279;51.300;12.394;2024-01-06T04:49:16;2.40;99.90
25328;DHT22;13279;51.300;12.394;2024-01-06T04:51:43;2.40;99.90
25328;DHT22;13279;51.300;12.394;2024-01-06T04:54:11;2.40;99.90
25328;DHT22;13279;51.300;12.394;2024-01-06T04:56:38;2.40;99.90
25328;DHT22;13279;51.300;12.394;2024-01-06T04:59:07;2.40;99.90
25328;DHT22;13279;51.300;12.394;2024-01-06T05:01:35;2.40;99.90
25328;DHT22;13279;51.300;12.394;2024-01-06T05:04:03;2.40;99.90
25328;DHT22;13279;51.300;12.394;2024-01-06T05:06:31;2.40;99.90
25328;DHT22;13279;51.300;12.394;2024-01-06T05:08:58;2.40;99.90
25328;DHT22;13279;51.300;12.394;2024-01-06T05:11:26;2.40;99.90
25328;DHT22;13279;51.300;12.394;2024-01-06T05:13:53;2.30;99.90
25328;DHT22;13279;51.300;12.394;2024-01-06T05:16:22;2.30;99.90
25328;DHT22;13279;51.300;12.394;2024-01-06T05:18:50;2.20;99.90
25328;DHT22;13279;51.300;12.394;2024-01-06T05:21:17;2.10;99.90
25328;DHT22;13279;51.300;12.394;2024-01-06T05:23:45;2.10;99.90
25328;DHT22;13279;51.300;12.394;2024-01-06T05:26:12;2.00;99.90
25328;DHT22;13279;51.300;12.394;2024-01-06T05:28:40;2.10;99.90
25328;DHT22;13279;51.300;12.394;2024-01-06T05:31:07;2.10;99.90
25328;DHT22;13279;51.300;12.394;2024-01-06T05:33:36;2.10;99.90
25328;DHT22;13279;51.300;12.394;2024-01-06T05:36:04;2.20;99.90
25328;DHT22;13279;51.300;12.394;2024-01-06T05:38:32;2.20;99.90
25328;DHT22;13279;51.300;12.394;2024-01-06T05:40:59;2.20;99.90
25328;DHT22;13279;51.300;12.394;2024-01-06T05:43:27;2.10;99.90
25328;DHT22;13279;51.300;12.394;2024-01-06T05:45:54;2.20;99.90
25328;DHT22;13279;51.300;12.394;2024-01-06T05:48:22;2.20;99.90
25328;DHT22;13279;51.300;12.394;2024-01-06T05:50:50;2.20;99.90
25328;DHT22;13279;51.300;12.394;2024-01-06T05:53:18;2.10;99.90
25328;DHT22;13279;51.300;12.394;2024-01-06T05:55:45;2.10;99.90
25328;DHT22;13279;51.300;12.394;2024-01-06T05:58:13;2.10;99.90
25328;DHT22;13279;51.300;12.394;2024-01-06T06:00:40;2.20;99.90
25328;DHT22;13279;51.300;12.394;2024-01-06T06:03:08;2.20;99.90
25328;DHT22;13279;51.300;12.394;2024-01-06T06:05:35;2.20;99.90
25328;DHT22;13279;51.300;12.394;2024-01-06T06:08:04;2.20;99.90
25328;DHT22;13279;51.300;12.394;2024-01-06T06:10:32;2.10;99.90
25328;DHT22;13279;51.300;12.394;2024-01-06T06:13:17;2.20;99.90
25328;DHT22;13279;51.300;12.394;2024-01-06T06:15:45;2.20;99.90
25328;DHT22;13279;51.300;12.394;2024-01-06T06:18:12;2.20;99.90
25328;DHT22;13279;51.300;12.394;2024-01-06T06:20:39;2.20;99.90
25328;DHT22;13279;51.300;12.394;2024-01-06T06:23:09;2.20;99.90
25328;DHT22;13279;51.300;12.394;2024-01-06T06:25:37;2.20;99.90
25328;DHT22;13279;51.300;12.394;2024-01-06T06:28:05;2.30;99.90
25328;DHT22;13279;51.300;12.394;2024-01-06T06:30:33;2.30;99.90
25328;DHT22;13279;51.300;12.394;2024-01-06T06:33:01;2.20;99.90
25328;DHT22;13279;51.300;12.394;2024-01-06T06:35:28;2.20;99.90
25328;DHT22;13279;51.300;12.394;2024-01-06T06:37:56;2.20;99.90
25328;DHT22;13279;51.300;12.394;2024-01-06T06:40:25;2.20;99.90
25328;DHT22;13279;51.300;12.394;2024-01-06T06:42:53;2.10;99.90
25328;DHT22;13279;51.300;12.394;2024-01-06T06:45:20;2.10;99.90
25328;DHT22;13279;51.300;12.394;2024-01-06T06:47:49;2.10;99.90
25328;DHT22;13279;51.300;12.394;2024-01-06T06:50:17;2.10;99.90
25328;DHT22;13279;51.300;12.394;2024-01-06T06:52:46;2.00;99.90
25328;DHT22;13279;51.300;12.394;2024-01-06T06:55:14;2.00;99.90
25328;DHT22;13279;51.300;12.394;2024-01-06T06:57:43;2.00;99.90
25328;DHT22;13279;51.300;12.394;2024-01-06T07:00:11;2.00;99.90
25328;DHT22;13279;51.300;12.394;2024-01-06T07:02:39;2.00;99.90
25328;DHT22;13279;51.300;12.394;2024-01-06T07:05:07;2.00;99.90
25328;DHT22;13279;51.300;12.394;2024-01-06T07:07:34;2.00;99.90
25328;DHT22;13279;51.300;12.394;2024-01-06T07:10:03;2.00;99.90
25328;DHT22;13279;51.300;12.394;2024-01-06T07:12:31;2.00;99.90
25328;DHT22;13279;51.300;12.394;2024-01-06T07:15:00;2.00;99.90
25328;DHT22;13279;51.300;12.394;2024-01-06T07:17:28;2.00;99.90
25328;DHT22;13279;51.300;12.394;2024-01-06T07:19:56;2.00;99.90
25328;DHT22;13279;51.300;12.394;2024-01-06T07:22:23;2.00;99.90
25328;DHT22;13279;51.300;12.394;2024-01-06T07:24:51;2.00;99.90
25328;DHT22;13279;51.300;12.394;2024-01-06T07:27:19;2.00;99.90
25328;DHT22;13279;51.300;12.394;2024-01-06T07:29:46;2.10;99.90
25328;DHT22;13279;51.300;12.394;2024-01-06T07:32:15;2.10;99.90
25328;DHT22;13279;51.300;12.394;2024-01-06T07:34:43;2.10;99.90
25328;DHT22;13279;51.300;12.394;2024-01-06T07:37:10;2.10;99.90
25328;DHT22;13279;51.300;12.394;2024-01-06T07:39:38;2.10;99.90
25328;DHT22;13279;51.300;12.394;2024-01-06T07:42:06;2.10;99.90
25328;DHT22;13279;51.300;12.394;2024-01-06T07:44:33;2.10;99.90
25328;DHT22;13279;51.300;12.394;2024-01-06T07:47:01;2.10;99.90
25328;DHT22;13279;51.300;12.394;2024-01-06T07:49:32;2.20;99.90
25328;DHT22;13279;51.300;12.394;2024-01-06T07:52:00;2.20;99.90
25328;DHT22;13279;51.300;12.394;2024-01-06T07:54:28;2.30;99.90
25328;DHT22;13279;51.300;12.394;2024-01-06T07:56:56;2.40;99.90
25328;DHT22;13279;51.300;12.394;2024-01-06T07:59:23;2.50;99.90
25328;DHT22;13279;51.300;12.394;2024-01-06T08:01:51;2.50;99.90
25328;DHT22;13279;51.300;12.394;2024-01-06T08:04:18;2.50;99.90
25328;DHT22;13279;51.300;12.394;2024-01-06T08:06:47;2.60;99.90
25328;DHT22;13279;51.300;12.394;2024-01-06T08:09:15;2.70;99.90
25328;DHT22;13279;51.300;12.394;2024-01-06T08:11:42;2.70;99.90
25328;DHT22;13279;51.300;12.394;2024-01-06T08:14:12;2.80;99.90
25328;DHT22;13279;51.300;12.394;2024-01-06T08:16:40;2.80;99.90
25328;DHT22;13279;51.300;12.394;2024-01-06T08:19:07;2.90;99.90
25328;DHT22;13279;51.300;12.394;2024-01-06T08:21:34;2.90;99.90
25328;DHT22;13279;51.300;12.394;2024-01-06T08:24:04;2.90;99.90
25328;DHT22;13279;51.300;12.394;2024-01-06T08:26:31;3.00;99.90
25328;DHT22;13279;51.300;12.394;2024-01-06T08:28:59;3.00;99.90
25328;DHT22;13279;51.300;12.394;2024-01-06T08:31:26;3.10;99.90
25328;DHT22;13279;51.300;12.394;2024-01-06T08:33:54;3.10;99.90
25328;DHT22;13279;51.300;12.394;2024-01-06T08:36:22;3.20;99.90
25328;DHT22;13279;51.300;12.394;2024-01-06T08:38:49;3.20;99.90
25328;DHT22;13279;51.300;12.394;2024-01-06T08:41:18;3.20;99.90
25328;DHT22;13279;51.300;12.394;2024-01-06T08:43:46;3.20;99.90
25328;DHT22;13279;51.300;12.394;2024-01-06T08:46:14;3.20;99.90
25328;DHT22;13279;51.300;12.394;2024-01-06T08:48:42;3.20;99.90
25328;DHT22;13279;51.300;12.394;2024-01-06T08:51:09;3.20;99.90
25328;DHT22;13279;51.300;12.394;2024-01-06T08:53:36;3.20;99.90
25328;DHT22;13279;51.300;12.394;2024-01-06T08:56:04;3.30;99.90
25328;DHT22;13279;51.300;12.394;2024-01-06T08:58:34;3.30;99.90
25328;DHT22;13279;51.300;12.394;2024-01-06T09:01:01;3.40;99.90
25328;DHT22;13279;51.300;12.394;2024-01-06T09:03:28;3.40;99.90
25328;DHT22;13279;51.300;12.394;2024-01-06T09:05:56;3.50;99.90
25328;DHT22;13279;51.300;12.394;2024-01-06T09:08:23;3.60;99.90
25328;DHT22;13279;51.300;12.394;2024-01-06T09:10:51;3.60;99.90
25328;DHT22;13279;51.300;12.394;2024-01-06T09:13:21;3.60;99.90
25328;DHT22;13279;51.300;12.394;2024-01-06T09:15:50;3.70;99.90
25328;DHT22;13279;51.300;12.394;2024-01-06T09:18:18;3.70;99.90
25328;DHT22;13279;51.300;12.394;2024-01-06T09:20:46;3.80;99.90
25328;DHT22;13279;51.300;12.394;2024-01-06T09:23:15;3.90;99.90
25328;DHT22;13279;51.300;12.394;2024-01-06T09:25:42;3.90;99.90
25328;DHT22;13279;51.300;12.394;2024-01-06T09:28:09;4.00;99.90
25328;DHT22;13279;51.300;12.394;2024-01-06T09:30:37;4.00;99.90
25328;DHT22;13279;51.300;12.394;2024-01-06T09:33:06;4.00;99.90
25328;DHT22;13279;51.300;12.394;2024-01-06T09:35:34;4.10;99.90
25328;DHT22;13279;51.300;12.394;2024-01-06T09:38:02;4.10;99.90
25328;DHT22;13279;51.300;12.394;2024-01-06T09:40:31;4.10;99.90
25328;DHT22;13279;51.300;12.394;2024-01-06T09:42:59;4.10;99.90
25328;DHT22;13279;51.300;12.394;2024-01-06T09:45:28;4.10;99.90
25328;DHT22;13279;51.300;12.394;2024-01-06T09:47:56;4.10;99.90
25328;DHT22;13279;51.300;12.394;2024-01-06T09:50:27;4.10;99.90
25328;DHT22;13279;51.300;12.394;2024-01-06T09:52:56;4.20;99.90
25328;DHT22;13279;51.300;12.394;2024-01-06T09:55:31;4.20;99.90
25328;DHT22;13279;51.300;12.394;2024-01-06T09:57:58;4.30;99.90
25328;DHT22;13279;51.300;12.394;2024-01-06T10:00:27;4.30;99.90
25328;DHT22;13279;51.300;12.394;2024-01-06T10:02:54;4.30;99.90
25328;DHT22;13279;51.300;12.394;2024-01-06T10:05:21;4.40;99.90
25328;DHT22;13279;51.300;12.394;2024-01-06T10:07:50;4.40;99.90
25328;DHT22;13279;51.300;12.394;2024-01-06T10:10:18;4.60;99.90
25328;DHT22;13279;51.300;12.394;2024-01-06T10:12:46;4.60;99.90
25328;DHT22;13279;51.300;12.394;2024-01-06T10:15:13;4.70;99.90
25328;DHT22;13279;51.300;12.394;2024-01-06T10:17:41;4.70;99.90
25328;DHT22;13279;51.300;12.394;2024-01-06T10:20:10;4.70;99.90
25328;DHT22;13279;51.300;12.394;2024-01-06T10:22:40;4.80;99.90
25328;DHT22;13279;51.300;12.394;2024-01-06T10:25:10;4.70;99.90
25328;DHT22;13279;51.300;12.394;2024-01-06T10:27:39;4.80;99.90
25328;DHT22;13279;51.300;12.394;2024-01-06T10:30:07;4.80;99.90
25328;DHT22;13279;51.300;12.394;2024-01-06T10:32:35;4.80;99.90
25328;DHT22;13279;51.300;12.394;2024-01-06T10:35:04;4.90;99.90
25328;DHT22;13279;51.300;12.394;2024-01-06T10:37:32;4.90;99.90
25328;DHT22;13279;51.300;12.394;2024-01-06T10:40:07;4.90;99.90
25328;DHT22;13279;51.300;12.394;2024-01-06T10:42:38;4.90;99.90
25328;DHT22;13279;51.300;12.394;2024-01-06T10:45:07;4.90;99.90
25328;DHT22;13279;51.300;12.394;2024-01-06T10:47:36;4.90;99.90
25328;DHT22;13279;51.300;12.394;2024-01-06T10:50:04;4.90;99.90
25328;DHT22;13279;51.300;12.394;2024-01-06T10:52:34;4.90;99.90
25328;DHT22;13279;51.300;12.394;2024-01-06T10:55:02;4.90;99.90
25328;DHT22;13279;51.300;12.394;2024-01-06T10:57:29;5.00;99.90
25328;DHT22;13279;51.300;12.394;2024-01-06T11:00:00;4.90;99.90
25328;DHT22;13279;51.300;12.394;2024-01-06T11:02:28;4.80;99.90
25328;DHT22;13279;51.300;12.394;2024-01-06T11:04:56;4.90;99.90
25328;DHT22;13279;51.300;12.394;2024-01-06T11:07:25;4.90;99.90
25328;DHT22;13279;51.300;12.394;2024-01-06T11:09:57;4.90;99.90
25328;DHT22;13279;51.300;12.394;2024-01-06T11:12:25;4.90;99.90
25328;DHT22;13279;51.300;12.394;2024-01-06T11:14:53;5.00;99.90
25328;DHT22;13279;51.300;12.394;2024-01-06T11:17:50;5.00;99.90
25328;DHT22;13279;51.300;12.394;2024-01-06T11:20:20;5.00;99.90
25328;DHT22;13279;51.300;12.394;2024-01-06T11:22:47;5.00;99.90
25328;DHT22;13279;51.300;12.394;2024-01-06T11:25:16;5.10;99.90
25328;DHT22;13279;51.300;12.394;2024-01-06T11:27:46;5.20;99.90
25328;DHT22;13279;51.300;12.394;2024-01-06T11:30:21;5.20;99.90
25328;DHT22;13279;51.300;12.394;2024-01-06T11:32:52;5.30;99.90
25328;DHT22;13279;51.300;12.394;2024-01-06T11:35:21;5.30;99.90
25328;DHT22;13279;51.300;12.394;2024-01-06T11:37:54;5.30;99.90
25328;DHT22;13279;51.300;12.394;2024-01-06T11:40:24;5.30;99.90
25328;DHT22;13279;51.300;12.394;2024-01-06T11:43:01;5.20;99.90
25328;DHT22;13279;51.300;12.394;2024-01-06T11:45:29;5.20;99.90
25328;DHT22;13279;51.300;12.394;2024-01-06T11:48:01;5.20;99.90
25328;DHT22;13279;51.300;12.394;2024-01-06T11:50:30;5.20;99.90
25328;DHT22;13279;51.300;12.394;2024-01-06T11:52:58;5.30;99.90
25328;DHT22;13279;51.300;12.394;2024-01-06T11:55:27;5.30;99.90
25328;DHT22;13279;51.300;12.394;2024-01-06T11:57:55;5.30;99.90
25328;DHT22;13279;51.300;12.394;2024-01-06T12:00:24;5.20;99.90
25328;DHT22;13279;51.300;12.394;2024-01-06T12:02:56;5.20;99.90
25328;DHT22;13279;51.300;12.394;2024-01-06T12:05:27;5.20;99.90
25328;DHT22;13279;51.300;12.394;2024-01-06T12:07:56;5.20;99.90
25328;DHT22;13279;51.300;12.394;2024-01-06T12:10:25;5.30;99.90
25328;DHT22;13279;51.300;12.394;2024-01-06T12:12:56;5.40;99.90
25328;DHT22;13279;51.300;12.394;2024-01-06T12:15:26;5.40;99.90
25328;DHT22;13279;51.300;12.394;2024-01-06T12:17:53;5.40;99.90
25328;DHT22;13279;51.300;12.394;2024-01-06T12:20:22;5.40;99.90
25328;DHT22;13279;51.300;12.394;2024-01-06T12:22:52;5.40;99.90
25328;DHT22;13279;51.300;12.394;2024-01-06T12:25:21;5.40;99.90
25328;DHT22;13279;51.300;12.394;2024-01-06T12:27:49;5.40;99.90
25328;DHT22;13279;51.300;12.394;2024-01-06T12:30:19;5.40;99.90
25328;DHT22;13279;51.300;12.394;2024-01-06T12:32:47;5.30;99.90
25328;DHT22;13279;51.300;12.394;2024-01-06T12:35:16;5.30;99.90
25328;DHT22;13279;51.300;12.394;2024-01-06T12:37:45;5.20;99.90
25328;DHT22;13279;51.300;12.394;2024-01-06T12:40:14;5.20;99.90
25328;DHT22;13279;51.300;12.394;2024-01-06T12:42:43;5.20;99.90
25328;DHT22;13279;51.300;12.394;2024-01-06T12:45:10;5.20;99.90
25328;DHT22;13279;51.300;12.394;2024-01-06T12:47:39;5.20;99.90
25328;DHT22;13279;51.300;12.394;2024-01-06T12:50:08;5.20;99.90
25328;DHT22;13279;51.300;12.394;2024-01-06T12:52:35;5.30;99.90
25328;DHT22;13279;51.300;12.394;2024-01-06T12:55:05;5.60;99.90
25328;DHT22;13279;51.300;12.394;2024-01-06T12:57:35;5.50;99.90
25328;DHT22;13279;51.300;12.394;2024-01-06T13:00:04;5.40;99.90
25328;DHT22;13279;51.300;12.394;2024-01-06T13:02:34;5.30;99.90
25328;DHT22;13279;51.300;12.394;2024-01-06T13:05:01;5.20;99.90
25328;DHT22;13279;51.300;12.394;2024-01-06T13:07:29;5.00;99.90
25328;DHT22;13279;51.300;12.394;2024-01-06T13:09:57;5.00;99.90
25328;DHT22;13279;51.300;12.394;2024-01-06T13:12:25;4.80;99.90
25328;DHT22;13279;51.300;12.394;2024-01-06T13:14:56;4.60;99.90
25328;DHT22;13279;51.300;12.394;2024-01-06T13:17:25;4.50;99.90
25328;DHT22;13279;51.300;12.394;2024-01-06T13:19:52;4.30;99.90
25328;DHT22;13279;51.300;12.394;2024-01-06T13:22:20;4.20;99.90
25328;DHT22;13279;51.300;12.394;2024-01-06T13:24:50;4.10;99.90
25328;DHT22;13279;51.300;12.394;2024-01-06T13:27:18;4.00;99.90
25328;DHT22;13279;51.300;12.394;2024-01-06T13:29:46;4.00;99.90
25328;DHT22;13279;51.300;12.394;2024-01-06T13:32:15;4.00;99.90
25328;DHT22;13279;51.300;12.394;2024-01-06T13:34:45;3.90;99.90
25328;DHT22;13279;51.300;12.394;2024-01-06T13:37:12;4.00;99.90
25328;DHT22;13279;51.300;12.394;2024-01-06T13:39:40;4.00;99.90
25328;DHT22;13279;51.300;12.394;2024-01-06T13:42:08;4.00;99.90
25328;DHT22;13279;51.300;12.394;2024-01-06T13:44:35;4.00;99.90
25328;DHT22;13279;51.300;12.394;2024-01-06T13:47:02;3.90;99.90
25328;DHT22;13279;51.300;12.394;2024-01-06T13:49:31;3.90;99.90
25328;DHT22;13279;51.300;12.394;2024-01-06T13:51:59;3.90;99.90
25328;DHT22;13279;51.300;12.394;2024-01-06T13:54:26;3.90;99.90
25328;DHT22;13279;51.300;12.394;2024-01-06T13:56:55;3.80;99.90
25328;DHT22;13279;51.300;12.394;2024-01-06T13:59:22;3.80;99.90
25328;DHT22;13279;51.300;12.394;2024-01-06T14:01:49;3.80;99.90
25328;DHT22;13279;51.300;12.394;2024-01-06T14:04:17;3.80;99.90
25328;DHT22;13279;51.300;12.394;2024-01-06T14:06:46;3.80;99.90
25328;DHT22;13279;51.300;12.394;2024-01-06T14:09:20;3.80;99.90
25328;DHT22;13279;51.300;12.394;2024-01-06T14:11:47;3.80;99.90
25328;DHT22;13279;51.300;12.394;2024-01-06T14:14:14;3.80;99.90
25328;DHT22;13279;51.300;12.394;2024-01-06T14:16:42;3.80;99.90
25328;DHT22;13279;51.300;12.394;2024-01-06T14:19:12;3.70;99.90
25328;DHT22;13279;51.300;12.394;2024-01-06T14:21:40;3.70;99.90
25328;DHT22;13279;51.300;12.394;2024-01-06T14:24:08;3.70;99.90
25328;DHT22;13279;51.300;12.394;2024-01-06T14:26:36;3.70;99.90
25328;DHT22;13279;51.300;12.394;2024-01-06T14:29:05;3.70;99.90
25328;DHT22;13279;51.300;12.394;2024-01-06T14:31:32;3.70;99.90
25328;DHT22;13279;51.300;12.394;2024-01-06T14:34:00;3.60;99.90
25328;DHT22;13279;51.300;12.394;2024-01-06T14:36:29;3.60;99.90
25328;DHT22;13279;51.300;12.394;2024-01-06T14:38:57;3.60;99.90
25328;DHT22;13279;51.300;12.394;2024-01-06T14:41:26;3.60;99.90
25328;DHT22;13279;51.300;12.394;2024-01-06T14:43:54;3.50;99.90
25328;DHT22;13279;51.300;12.394;2024-01-06T14:46:21;3.50;99.90
25328;DHT22;13279;51.300;12.394;2024-01-06T14:48:49;3.50;99.90
25328;DHT22;13279;51.300;12.394;2024-01-06T14:51:17;3.50;99.90
25328;DHT22;13279;51.300;12.394;2024-01-06T14:53:44;3.40;99.90
25328;DHT22;13279;51.300;12.394;2024-01-06T14:56:11;3.40;99.90
25328;DHT22;13279;51.300;12.394;2024-01-06T14:58:41;3.40;99.90
25328;DHT22;13279;51.300;12.394;2024-01-06T15:01:08;3.30;99.90
25328;DHT22;13279;51.300;12.394;2024-01-06T15:03:35;3.30;99.90
25328;DHT22;13279;51.300;12.394;2024-01-06T15:06:03;3.20;99.90
25328;DHT22;13279;51.300;12.394;2024-01-06T15:08:31;3.20;99.90
25328;DHT22;13279;51.300;12.394;2024-01-06T15:10:59;3.20;99.90
25328;DHT22;13279;51.300;12.394;2024-01-06T15:13:26;3.20;99.90
25328;DHT22;13279;51.300;12.394;2024-01-06T15:15:55;3.20;99.90
25328;DHT22;13279;51.300;12.394;2024-01-06T15:18:22;3.20;99.90
25328;DHT22;13279;51.300;12.394;2024-01-06T15:20:50;3.20;99.90
25328;DHT22;13279;51.300;12.394;2024-01-06T15:23:17;3.20;99.90
25328;DHT22;13279;51.300;12.394;2024-01-06T15:25:46;3.20;99.90
25328;DHT22;13279;51.300;12.394;2024-01-06T15:28:13;3.20;99.90
25328;DHT22;13279;51.300;12.394;2024-01-06T15:30:41;3.10;99.90
25328;DHT22;13279;51.300;12.394;2024-01-06T15:33:09;3.10;99.90
25328;DHT22;13279;51.300;12.394;2024-01-06T15:35:37;3.10;99.90